createdAt,value
2017-12-29T00:00:47.162Z,4.00
2017-12-29T00:03:13.551Z,3.90
2017-12-29T00:05:39.880Z,3.90
2017-12-29T00:08:06.276Z,4.00
2017-12-29T00:10:32.754Z,3.90
2017-12-29T00:12:59.142Z,4.00
2017-12-29T00:15:25.494Z,3.90
2017-12-29T00:17:51.860Z,4.00
2017-12-29T00:20:18.181Z,4.00
2017-12-29T00:22:44.516Z,3.90
2017-12-29T00:25:10.871Z,3.90
2017-12-29T00:27:37.995Z,3.90
2017-12-29T00:30:04.373Z,3.90
2017-12-29T00:32:30.732Z,3.90
2017-12-29T00:34:57.100Z,3.90
2017-12-29T00:37:24.186Z,3.90
2017-12-29T00:39:50.557Z,3.90
2017-12-29T00:42:16.887Z,3.80
2017-12-29T00:44:43.262Z,3.90
2017-12-29T00:47:10.598Z,4.00
2017-12-29T00:49:37.697Z,4.00
2017-12-29T00:52:05.559Z,3.90
2017-12-29T00:54:31.924Z,4.00
2017-12-29T00:56:59.004Z,3.90
2017-12-29T00:59:26.082Z,3.90
2017-12-29T01:01:52.393Z,3.80
2017-12-29T01:04:18.743Z,3.80
2017-12-29T01:06:45.097Z,3.90
2017-12-29T01:09:12.949Z,3.90
2017-12-29T01:11:39.279Z,3.90
2017-12-29T01:14:05.636Z,3.90
2017-12-29T01:16:31.948Z,3.90
2017-12-29T01:18:58.283Z,3.90
2017-12-29T01:21:24.621Z,3.80
2017-12-29T01:23:50.942Z,3.80
2017-12-29T01:26:17.275Z,3.80
2017-12-29T01:28:43.586Z,3.80
2017-12-29T01:31:09.929Z,3.80
2017-12-29T01:33:36.262Z,3.90
2017-12-29T01:36:02.600Z,3.90
2017-12-29T01:38:29.519Z,4.00
2017-12-29T01:40:55.871Z,4.00
2017-12-29T01:43:22.196Z,3.90
2017-12-29T01:45:48.539Z,3.80
2017-12-29T01:48:15.638Z,3.90
2017-12-29T01:50:41.963Z,3.90
2017-12-29T01:53:08.272Z,3.90
2017-12-29T01:55:34.617Z,3.90
2017-12-29T01:58:01.694Z,3.90
2017-12-29T02:00:28.018Z,3.90
2017-12-29T02:02:54.363Z,3.90
2017-12-29T02:05:20.681Z,4.00
2017-12-29T02:07:46.995Z,4.00
2017-12-29T02:10:13.612Z,3.90
2017-12-29T02:12:40.684Z,3.80
2017-12-29T02:15:07.001Z,3.80
2017-12-29T02:17:34.077Z,3.80
2017-12-29T02:20:00.383Z,3.80
2017-12-29T02:22:26.713Z,3.80
2017-12-29T02:24:53.751Z,3.90
2017-12-29T02:27:20.829Z,3.90
2017-12-29T02:29:47.139Z,3.80
2017-12-29T02:32:13.464Z,3.80
2017-12-29T02:34:39.802Z,3.90
2017-12-29T02:37:06.146Z,3.90
2017-12-29T02:39:32.440Z,3.80
2017-12-29T02:41:59.488Z,3.80
2017-12-29T02:44:26.723Z,3.80
2017-12-29T02:46:53.028Z,3.80
2017-12-29T02:49:19.358Z,3.80
2017-12-29T02:51:45.689Z,3.80
2017-12-29T02:54:12.025Z,3.90
2017-12-29T02:56:38.349Z,3.90
2017-12-29T02:59:04.660Z,3.90
2017-12-29T03:01:30.971Z,3.90
2017-12-29T03:03:58.021Z,3.90
2017-12-29T03:06:24.325Z,3.80
2017-12-29T03:08:51.395Z,3.90
2017-12-29T03:11:17.722Z,3.90
2017-12-29T03:13:44.785Z,3.80
2017-12-29T03:16:11.103Z,3.80
2017-12-29T03:18:37.454Z,3.90
2017-12-29T03:21:03.781Z,3.80
2017-12-29T03:23:30.112Z,3.80
2017-12-29T03:25:56.417Z,3.80
2017-12-29T03:28:23.462Z,3.90
2017-12-29T03:30:50.554Z,3.80
2017-12-29T03:33:16.996Z,3.80
2017-12-29T03:35:43.321Z,3.90
2017-12-29T03:38:09.629Z,3.90
2017-12-29T03:40:35.959Z,4.00
2017-12-29T03:43:02.267Z,3.80
2017-12-29T03:45:29.363Z,3.90
2017-12-29T03:47:55.684Z,3.90
2017-12-29T03:50:21.997Z,3.80
2017-12-29T03:52:48.348Z,3.90
2017-12-29T03:55:14.668Z,3.90
2017-12-29T03:57:40.990Z,3.90
2017-12-29T04:00:07.320Z,3.80
2017-12-29T04:02:33.648Z,3.80
2017-12-29T04:05:00.291Z,3.90
2017-12-29T04:07:26.616Z,3.80
2017-12-29T04:09:52.922Z,3.90
2017-12-29T04:12:19.974Z,3.90
2017-12-29T04:14:46.305Z,3.90
2017-12-29T04:17:12.644Z,3.90
2017-12-29T04:19:38.976Z,3.90
2017-12-29T04:22:05.294Z,3.80
2017-12-29T04:24:31.612Z,3.80
2017-12-29T04:26:58.676Z,3.90
2017-12-29T04:29:24.989Z,3.90
2017-12-29T04:31:52.049Z,3.90
2017-12-29T04:34:18.372Z,3.90
2017-12-29T04:36:45.423Z,4.00
2017-12-29T04:39:12.500Z,4.00
2017-12-29T04:41:38.846Z,4.00
2017-12-29T04:44:05.162Z,4.10
2017-12-29T04:46:31.510Z,4.10
2017-12-29T04:48:57.840Z,4.10
2017-12-29T04:51:24.166Z,4.00
2017-12-29T04:53:50.495Z,3.90
2017-12-29T04:56:16.882Z,3.80
2017-12-29T04:58:43.215Z,3.90
2017-12-29T05:01:09.559Z,3.90
2017-12-29T05:03:35.871Z,3.90
2017-12-29T05:06:02.940Z,4.00
2017-12-29T05:08:29.274Z,3.90
2017-12-29T05:10:55.589Z,3.80
2017-12-29T05:13:21.906Z,4.00
2017-12-29T05:15:48.956Z,3.90
2017-12-29T05:18:16.016Z,4.00
2017-12-29T05:20:42.322Z,4.00
2017-12-29T05:23:09.381Z,3.90
2017-12-29T05:25:36.415Z,4.00
2017-12-29T05:28:03.477Z,3.90
2017-12-29T05:30:30.601Z,3.90
2017-12-29T05:32:56.934Z,3.80
2017-12-29T05:35:23.265Z,3.80
2017-12-29T05:37:50.321Z,3.90
2017-12-29T05:40:17.404Z,3.80
2017-12-29T05:42:43.707Z,3.80
2017-12-29T05:45:10.765Z,3.90
2017-12-29T05:47:37.087Z,3.90
2017-12-29T05:50:04.162Z,3.90
2017-12-29T05:52:30.473Z,3.80
2017-12-29T05:54:56.812Z,3.80
2017-12-29T05:57:23.168Z,3.90
2017-12-29T05:59:49.478Z,3.90
2017-12-29T06:02:15.794Z,3.80
2017-12-29T06:04:42.113Z,3.80
2017-12-29T06:07:09.163Z,3.70
2017-12-29T06:09:35.503Z,3.60
2017-12-29T06:12:01.831Z,3.80
2017-12-29T06:14:28.213Z,3.80
2017-12-29T06:16:54.529Z,3.80
2017-12-29T06:19:20.860Z,3.80
2017-12-29T06:21:47.172Z,3.80
2017-12-29T06:24:13.475Z,3.80
2017-12-29T06:26:40.527Z,3.80
2017-12-29T06:29:06.876Z,3.70
2017-12-29T06:31:33.194Z,3.80
2017-12-29T06:33:59.500Z,3.80
2017-12-29T06:36:26.583Z,3.70
2017-12-29T06:38:52.912Z,3.70
2017-12-29T06:41:19.219Z,3.70
2017-12-29T06:43:45.559Z,3.70
2017-12-29T06:46:11.874Z,3.80
2017-12-29T06:48:38.923Z,3.70
2017-12-29T06:51:05.996Z,3.70
2017-12-29T06:53:32.302Z,3.70
2017-12-29T06:55:59.428Z,3.70
2017-12-29T06:58:25.732Z,3.60
2017-12-29T07:00:52.062Z,3.80
2017-12-29T07:03:18.389Z,3.80
2017-12-29T07:05:44.709Z,3.80
2017-12-29T07:08:11.025Z,3.80
2017-12-29T07:10:37.385Z,3.70
2017-12-29T07:13:03.709Z,3.70
2017-12-29T07:15:30.030Z,3.80
2017-12-29T07:17:56.355Z,3.90
2017-12-29T07:20:22.682Z,3.80
2017-12-29T07:22:49.039Z,3.90
2017-12-29T07:25:15.376Z,3.90
2017-12-29T07:27:41.706Z,3.70
2017-12-29T07:30:08.033Z,3.60
2017-12-29T07:32:34.367Z,3.60
2017-12-29T07:35:00.688Z,3.60
2017-12-29T07:37:27.018Z,3.70
2017-12-29T07:39:53.348Z,3.60
2017-12-29T07:42:19.730Z,3.50
2017-12-29T07:44:46.058Z,3.50
2017-12-29T07:47:13.108Z,3.50
2017-12-29T07:49:39.436Z,3.50
2017-12-29T07:52:05.793Z,3.50
2017-12-29T07:54:32.140Z,3.50
2017-12-29T07:56:58.449Z,3.50
2017-12-29T07:59:24.778Z,3.50
2017-12-29T08:01:51.108Z,3.50
2017-12-29T08:04:17.430Z,3.50
2017-12-29T08:06:43.769Z,3.50
2017-12-29T08:09:10.100Z,3.50
2017-12-29T08:11:36.444Z,3.50
2017-12-29T08:14:02.765Z,3.40
2017-12-29T08:16:29.089Z,3.50
2017-12-29T08:18:55.422Z,3.50
2017-12-29T08:21:21.852Z,3.60
2017-12-29T08:23:48.160Z,3.60
2017-12-29T08:26:14.487Z,3.60
2017-12-29T08:28:41.543Z,3.60
2017-12-29T08:31:08.131Z,3.50
2017-12-29T08:33:34.467Z,3.60
2017-12-29T08:36:00.772Z,3.60
2017-12-29T08:38:27.113Z,3.60
2017-12-29T08:40:53.432Z,3.70
2017-12-29T08:43:19.788Z,3.80
2017-12-29T08:45:47.611Z,3.70
2017-12-29T08:48:13.919Z,3.70
2017-12-29T08:50:40.963Z,3.80
2017-12-29T08:53:08.037Z,3.90
2017-12-29T08:55:34.350Z,3.90
2017-12-29T08:58:00.676Z,3.80
2017-12-29T09:00:27.752Z,3.70
2017-12-29T09:02:54.092Z,3.70
2017-12-29T09:05:20.438Z,3.70
2017-12-29T09:07:47.553Z,3.70
2017-12-29T09:10:13.877Z,3.70
2017-12-29T09:12:40.187Z,3.70
2017-12-29T09:15:07.343Z,3.70
2017-12-29T09:17:33.936Z,3.70
2017-12-29T09:20:00.282Z,3.80
2017-12-29T09:22:26.599Z,3.80
2017-12-29T09:24:53.031Z,3.70
2017-12-29T09:27:20.260Z,3.70
2017-12-29T09:29:46.660Z,3.70
2017-12-29T09:32:13.100Z,3.80
2017-12-29T09:34:39.499Z,3.80
2017-12-29T09:37:05.838Z,3.90
2017-12-29T09:39:32.927Z,3.90
2017-12-29T09:41:59.290Z,3.90
2017-12-29T09:44:25.605Z,3.90
2017-12-29T09:46:51.994Z,3.80
2017-12-29T09:49:18.323Z,3.90
2017-12-29T09:51:44.699Z,3.80
2017-12-29T09:54:11.043Z,3.90
2017-12-29T09:56:37.437Z,3.80
2017-12-29T09:59:03.741Z,3.70
2017-12-29T10:01:30.818Z,3.80
2017-12-29T10:03:57.163Z,3.80
2017-12-29T10:06:23.474Z,3.80
2017-12-29T10:08:49.783Z,3.80
2017-12-29T10:11:16.841Z,3.80
2017-12-29T10:13:43.154Z,3.80
2017-12-29T10:16:10.205Z,4.10
2017-12-29T10:18:36.558Z,4.10
2017-12-29T10:21:02.888Z,3.90
2017-12-29T10:23:29.205Z,3.80
2017-12-29T10:25:55.552Z,3.90
2017-12-29T10:28:21.905Z,4.00
2017-12-29T10:30:48.230Z,3.90
2017-12-29T10:33:14.561Z,3.90
2017-12-29T10:35:40.872Z,3.90
2017-12-29T10:38:07.201Z,3.90
2017-12-29T10:40:33.529Z,3.90
2017-12-29T10:42:59.858Z,3.80
2017-12-29T10:45:26.170Z,3.80
2017-12-29T10:47:53.237Z,3.90
2017-12-29T10:50:19.567Z,3.90
2017-12-29T10:52:45.914Z,3.90
2017-12-29T10:55:12.245Z,3.90
2017-12-29T10:57:38.599Z,3.80
2017-12-29T11:00:04.915Z,3.90
2017-12-29T11:02:31.262Z,4.00
2017-12-29T11:04:58.373Z,4.20
2017-12-29T11:07:24.745Z,4.20
2017-12-29T11:09:51.083Z,4.40
2017-12-29T11:12:18.177Z,4.10
2017-12-29T11:14:44.489Z,4.10
2017-12-29T11:17:10.864Z,4.10
2017-12-29T11:19:37.209Z,4.20
2017-12-29T11:22:03.549Z,4.20
2017-12-29T11:24:30.626Z,4.30
2017-12-29T11:26:57.695Z,4.20
2017-12-29T11:29:24.044Z,4.10
2017-12-29T11:31:50.365Z,4.10
2017-12-29T11:34:16.717Z,4.10
2017-12-29T11:36:43.069Z,4.10
2017-12-29T11:39:09.452Z,4.10
2017-12-29T11:41:35.756Z,4.00
2017-12-29T11:44:02.830Z,4.10
2017-12-29T11:46:29.384Z,4.00
2017-12-29T11:48:55.756Z,4.10
2017-12-29T11:51:22.812Z,4.20
2017-12-29T11:53:49.855Z,4.20
2017-12-29T11:56:16.915Z,4.30
2017-12-29T11:58:43.278Z,4.20
2017-12-29T12:01:09.742Z,4.20
2017-12-29T12:03:36.077Z,4.20
2017-12-29T12:06:02.401Z,4.20
2017-12-29T12:08:28.726Z,4.20
2017-12-29T12:10:55.049Z,4.40
2017-12-29T12:13:21.376Z,4.50
2017-12-29T12:15:47.716Z,4.50
2017-12-29T12:18:14.049Z,4.60
2017-12-29T12:20:40.374Z,4.20
2017-12-29T12:23:06.696Z,4.30
2017-12-29T12:25:33.051Z,4.30
2017-12-29T12:27:59.386Z,4.30
2017-12-29T12:30:26.487Z,4.50
2017-12-29T12:32:52.817Z,4.50
2017-12-29T12:35:19.137Z,4.60
2017-12-29T12:37:45.468Z,4.80
2017-12-29T12:40:11.769Z,4.70
2017-12-29T12:42:38.817Z,4.70
2017-12-29T12:45:05.867Z,4.90
2017-12-29T12:47:32.945Z,4.80
2017-12-29T12:49:59.605Z,4.80
2017-12-29T12:52:26.469Z,4.90
2017-12-29T12:54:52.975Z,4.90
2017-12-29T12:57:19.660Z,4.90
2017-12-29T12:59:46.471Z,4.80
2017-12-29T13:02:13.108Z,4.70
2017-12-29T13:04:39.709Z,4.50
2017-12-29T13:07:06.589Z,4.40
2017-12-29T13:09:33.032Z,4.50
2017-12-29T13:11:59.459Z,4.40
2017-12-29T13:14:25.861Z,4.30
2017-12-29T13:16:52.183Z,4.30
2017-12-29T13:19:18.508Z,4.40
2017-12-29T13:21:44.871Z,4.20
2017-12-29T13:24:11.233Z,4.10
2017-12-29T13:26:37.562Z,4.10
2017-12-29T13:29:03.916Z,4.10
2017-12-29T13:31:30.235Z,4.00
2017-12-29T13:33:57.297Z,4.10
2017-12-29T13:36:24.335Z,4.30
2017-12-29T13:38:50.725Z,4.20
2017-12-29T13:41:17.026Z,4.40
2017-12-29T13:43:43.338Z,4.40
2017-12-29T13:46:09.677Z,4.80
2017-12-29T13:48:36.007Z,5.40
2017-12-29T13:51:02.389Z,5.90
2017-12-29T13:53:28.694Z,5.70
2017-12-29T13:55:55.045Z,5.80
2017-12-29T13:58:21.368Z,5.70
2017-12-29T14:00:47.728Z,5.80
2017-12-29T14:03:14.825Z,5.70
2017-12-29T14:05:41.173Z,5.70
2017-12-29T14:08:07.529Z,5.70
2017-12-29T14:10:33.844Z,5.70
2017-12-29T14:13:00.183Z,5.80
2017-12-29T14:15:26.515Z,5.70
2017-12-29T14:17:52.843Z,5.50
2017-12-29T14:20:19.248Z,5.50
2017-12-29T14:22:45.571Z,5.40
2017-12-29T14:25:11.898Z,5.40
2017-12-29T14:27:38.212Z,5.10
2017-12-29T14:30:04.519Z,4.90
2017-12-29T14:32:31.612Z,4.80
2017-12-29T14:34:57.933Z,4.70
2017-12-29T14:37:24.269Z,4.70
2017-12-29T14:39:50.583Z,4.60
2017-12-29T14:42:16.887Z,4.50
2017-12-29T14:44:43.984Z,4.00
2017-12-29T14:47:10.304Z,4.00
2017-12-29T14:49:36.669Z,4.10
2017-12-29T14:52:03.031Z,4.00
2017-12-29T14:54:30.103Z,3.80
2017-12-29T14:56:56.413Z,3.70
2017-12-29T14:59:23.482Z,3.60
2017-12-29T15:01:49.807Z,3.60
2017-12-29T15:04:16.181Z,3.50
2017-12-29T15:06:42.543Z,3.50
2017-12-29T15:09:08.890Z,3.40
2017-12-29T15:11:35.251Z,3.30
2017-12-29T15:14:01.569Z,3.20
2017-12-29T15:16:27.894Z,3.20
2017-12-29T15:18:54.241Z,3.10
2017-12-29T15:21:20.665Z,3.00
2017-12-29T15:23:47.034Z,3.10
2017-12-29T15:26:14.223Z,3.10
2017-12-29T15:28:40.652Z,3.10
2017-12-29T15:31:07.011Z,3.00
2017-12-29T15:33:33.351Z,3.00
2017-12-29T15:35:59.675Z,2.80
2017-12-29T15:40:59.079Z,2.70
2017-12-29T15:43:25.473Z,2.60
2017-12-29T15:45:52.599Z,2.60
2017-12-29T15:48:18.930Z,2.50
2017-12-29T15:50:46.245Z,2.60
2017-12-29T15:53:12.597Z,2.60
2017-12-29T15:55:38.914Z,2.60
2017-12-29T15:58:05.300Z,2.60
2017-12-29T16:00:32.415Z,2.50
2017-12-29T16:02:59.552Z,2.50
2017-12-29T16:05:25.918Z,2.40
2017-12-29T16:07:52.301Z,2.40
2017-12-29T16:10:18.630Z,2.50
2017-12-29T16:12:45.000Z,2.40
2017-12-29T16:15:11.396Z,2.40
2017-12-29T16:17:37.801Z,2.50
2017-12-29T16:20:04.886Z,2.40
2017-12-29T16:22:31.268Z,2.40
2017-12-29T16:24:57.604Z,2.50
2017-12-29T16:27:23.974Z,2.50
2017-12-29T16:29:50.434Z,2.50
2017-12-29T16:32:16.808Z,2.50
2017-12-29T16:34:43.860Z,2.50
2017-12-29T16:37:10.233Z,2.50
2017-12-29T16:39:36.603Z,2.50
2017-12-29T16:42:03.683Z,2.40
2017-12-29T16:44:29.994Z,2.40
2017-12-29T16:46:57.166Z,2.30
2017-12-29T16:49:23.495Z,2.30
2017-12-29T16:51:49.835Z,2.40
2017-12-29T16:54:16.143Z,2.30
2017-12-29T16:56:42.478Z,2.30
2017-12-29T16:59:08.818Z,2.30
2017-12-29T17:01:35.195Z,2.30
2017-12-29T17:04:01.617Z,2.30
2017-12-29T17:06:27.980Z,2.30
2017-12-29T17:08:55.065Z,2.20
2017-12-29T17:11:21.448Z,2.10
2017-12-29T17:13:47.864Z,2.20
2017-12-29T17:16:14.964Z,2.10
2017-12-29T17:18:41.303Z,2.10
2017-12-29T17:21:07.802Z,2.00
2017-12-29T17:23:34.891Z,2.10
2017-12-29T17:26:01.224Z,2.00
2017-12-29T17:28:27.571Z,2.00
2017-12-29T17:30:53.945Z,2.00
2017-12-29T17:33:20.994Z,2.10
2017-12-29T17:35:48.112Z,2.00
2017-12-29T17:38:14.428Z,2.00
2017-12-29T17:40:40.791Z,2.10
2017-12-29T17:43:07.173Z,2.20
2017-12-29T17:45:33.549Z,2.20
2017-12-29T17:47:59.910Z,2.00
2017-12-29T17:50:27.005Z,1.90
2017-12-29T17:52:53.388Z,1.90
2017-12-29T17:55:20.448Z,2.00
2017-12-29T17:57:46.833Z,1.90
2017-12-29T18:00:13.180Z,1.90
2017-12-29T18:02:40.402Z,1.90
2017-12-29T18:05:06.803Z,1.90
2017-12-29T18:07:33.126Z,1.80
2017-12-29T18:09:59.457Z,1.90
2017-12-29T18:12:25.785Z,1.80
2017-12-29T18:14:52.147Z,1.80
2017-12-29T18:17:19.214Z,1.80
2017-12-29T18:19:46.361Z,1.80
2017-12-29T18:22:13.426Z,1.80
2017-12-29T18:24:39.859Z,1.70
2017-12-29T18:27:07.260Z,1.70
2017-12-29T18:29:34.691Z,1.80
2017-12-29T18:32:01.324Z,1.80
2017-12-29T18:34:28.748Z,1.60
2017-12-29T18:36:55.593Z,1.60
2017-12-29T18:39:22.019Z,1.80
2017-12-29T18:41:48.352Z,1.70
2017-12-29T18:44:14.719Z,1.80
2017-12-29T18:46:41.103Z,1.60
2017-12-29T18:49:07.474Z,1.70
2017-12-29T18:51:34.540Z,1.50
2017-12-29T18:54:01.026Z,1.50
2017-12-29T18:56:27.358Z,1.60
2017-12-29T18:58:54.496Z,1.50
2017-12-29T19:01:20.933Z,1.40
2017-12-29T19:03:47.267Z,1.60
2017-12-29T19:06:13.766Z,1.60
2017-12-29T19:08:40.083Z,1.50
2017-12-29T19:11:06.410Z,1.60
2017-12-29T19:13:32.786Z,1.50
2017-12-29T19:15:59.221Z,1.50
2017-12-29T19:18:27.104Z,1.40
2017-12-29T19:20:53.479Z,1.40
2017-12-29T19:23:19.917Z,1.40
2017-12-29T19:25:46.346Z,1.40
2017-12-29T19:28:12.791Z,1.30
2017-12-29T19:30:39.215Z,1.40
2017-12-29T19:33:05.593Z,1.30
2017-12-29T19:35:32.013Z,1.30
2017-12-29T19:37:58.365Z,1.30
2017-12-29T19:40:24.717Z,1.20
2017-12-29T19:42:51.926Z,1.20
2017-12-29T19:45:18.297Z,1.10
2017-12-29T19:47:45.363Z,1.20
2017-12-29T19:50:11.752Z,1.20
2017-12-29T19:52:38.118Z,1.30
2017-12-29T19:55:04.503Z,1.30
2017-12-29T19:57:30.889Z,1.40
2017-12-29T19:59:57.223Z,1.30
2017-12-29T20:02:23.661Z,1.40
2017-12-29T20:04:50.023Z,1.40
2017-12-29T20:07:16.385Z,1.30
2017-12-29T20:09:43.494Z,1.40
2017-12-29T20:12:09.861Z,1.30
2017-12-29T20:14:36.350Z,1.40
2017-12-29T20:17:02.740Z,1.40
2017-12-29T20:19:29.273Z,1.40
2017-12-29T20:21:56.462Z,1.30
2017-12-29T20:24:22.893Z,1.30
2017-12-29T20:26:49.352Z,1.20
2017-12-29T20:29:16.629Z,1.30
2017-12-29T20:31:43.827Z,1.20
2017-12-29T20:34:10.268Z,1.20
2017-12-29T20:36:37.478Z,1.10
2017-12-29T20:39:03.887Z,1.10
2017-12-29T20:41:31.029Z,1.20
2017-12-29T20:43:57.506Z,1.10
2017-12-29T20:46:24.414Z,1.10
2017-12-29T20:48:51.177Z,0.90
2017-12-29T20:51:18.186Z,0.90
2017-12-29T20:53:44.823Z,1.00
2017-12-29T20:56:11.215Z,1.10
2017-12-29T20:58:37.792Z,1.10
2017-12-29T21:01:04.943Z,1.00
2017-12-29T21:03:31.368Z,0.90
2017-12-29T21:05:57.807Z,0.90
2017-12-29T21:08:24.338Z,0.90
2017-12-29T21:10:51.560Z,0.80
2017-12-29T21:13:18.023Z,0.70
2017-12-29T21:15:44.413Z,0.70
2017-12-29T21:18:10.862Z,0.80
2017-12-29T21:20:37.511Z,0.90
2017-12-29T21:23:03.958Z,0.80
2017-12-29T21:25:31.192Z,0.90
2017-12-29T21:27:57.605Z,0.80
2017-12-29T21:30:24.076Z,0.80
2017-12-29T21:32:51.526Z,0.80
2017-12-29T21:35:19.612Z,0.70
2017-12-29T21:37:46.385Z,0.70
2017-12-29T21:40:13.697Z,0.80
2017-12-29T21:42:40.245Z,0.80
2017-12-29T21:45:06.881Z,0.90
2017-12-29T21:47:33.713Z,0.90
2017-12-29T21:50:00.247Z,0.70
2017-12-29T21:52:26.638Z,0.70
2017-12-29T21:54:53.001Z,0.80
2017-12-29T21:57:19.410Z,0.80
2017-12-29T21:59:45.854Z,0.90
2017-12-29T22:02:12.282Z,0.80
2017-12-29T22:04:38.843Z,0.80
2017-12-29T22:07:06.012Z,1.00
2017-12-29T22:09:32.425Z,0.90
2017-12-29T22:11:58.831Z,1.00
2017-12-29T22:14:25.366Z,0.90
2017-12-29T22:16:51.772Z,0.80
2017-12-29T22:19:18.124Z,0.90
2017-12-29T22:21:44.479Z,0.90
2017-12-29T22:24:10.886Z,1.00
2017-12-29T22:26:38.068Z,1.10
2017-12-29T22:29:04.461Z,1.00
2017-12-29T22:31:30.845Z,1.10
2017-12-29T22:34:04.304Z,1.00
2017-12-29T22:36:30.762Z,1.00
2017-12-29T22:38:57.194Z,1.00
2017-12-29T22:41:23.644Z,1.10
2017-12-29T22:43:50.036Z,1.00
2017-12-29T22:46:16.470Z,1.10
2017-12-29T22:48:42.963Z,1.20
2017-12-29T22:51:10.083Z,1.20
2017-12-29T22:53:36.509Z,1.10
2017-12-29T22:56:02.900Z,1.20
2017-12-29T22:58:29.290Z,1.20
2017-12-29T23:00:55.665Z,1.20
2017-12-29T23:03:22.046Z,1.20
2017-12-29T23:05:48.446Z,1.10
2017-12-29T23:08:14.898Z,1.20
2017-12-29T23:10:41.434Z,1.20
2017-12-29T23:13:07.833Z,1.20
2017-12-29T23:15:34.225Z,1.10
2017-12-29T23:18:01.350Z,1.10
2017-12-29T23:20:27.867Z,1.10
2017-12-29T23:22:54.254Z,1.20
2017-12-29T23:25:21.464Z,1.10
2017-12-29T23:27:48.690Z,1.10
2017-12-29T23:30:15.122Z,1.00
2017-12-29T23:32:41.580Z,1.00
2017-12-29T23:35:08.015Z,1.10
2017-12-29T23:37:35.244Z,1.10
2017-12-29T23:40:01.669Z,1.00
2017-12-29T23:42:28.130Z,1.00
2017-12-29T23:44:54.520Z,1.00
2017-12-29T23:47:20.905Z,1.00
2017-12-29T23:49:47.280Z,0.90
2017-12-29T23:52:13.651Z,1.00
2017-12-29T23:54:39.997Z,1.00
2017-12-29T23:57:06.417Z,1.10
2017-12-29T23:59:33.573Z,0.90
